KCKM

Fletcher Field Airport

Clarksdale, Mississippi, USA
METAR KCKM 182135Z AUTO 35005KT 10SM BKN024 OVC030 29/26 A2993 RMK A01
Observed Flight Rules
Aug-18 @ 21:35 UTC (20 minutes ago) Marginal Visual Flight Rules
Wind Visibility Clouds
350° at 5 knots 10 miles
  • Broken at 2,400' AGL
  • Overcast at 3,000' AGL
Temperatures Readings
Current 29°C / 84°F
Dewpoint 26°C / 79°F
Humidity 84%
Altimeter 29.93" Hg
Pressure 1014 hPa
Elevation 53
METAR KCKM 182135Z AUTO 35005KT 10SM BKN024 OVC030 29/26 A2993 RMK A01
Observed Flight Rules
Aug-18 @ 21:35 UTC
(20 minutes ago)
MVFR
Wind Visibility
350° at 5 knots 10 miles
Clouds
  • Broken at 2,400' AGL
  • Overcast at 3,000' AGL
Temperature Dewpoint
29°C / 84°F 26°C / 79°F
Humidity Altimeter Pressure
84% 29.93" Hg 1014 hPa